Dades meteomassalio
Diari Summary for Setembre 2, 2017 Units:  Metric    English   Both
« Previous Day
Next Day »
Diari Semanal Mensual Anual Personalitzat
  Maxima: Minima: Mijana:
Temperatura: -17.8 °C -11 °C -7.7 °C
Rosada: -17.8 °C -15.3 °C -12.7 °C
Humitat: Humidity % 38 % 57 %
Velocitat del vent: 0 km/h 0 km/h 40.6 km/h
Racha vent: 0 km/h - -
Vent:- - SW
Pressio: 0 hPa 34567.7 hPa -
Pluja: 0 mm    
Historical Graphs
 
 
Tabular Data for Setembre 2, 2017
Time Temperature Dew Point Pressure Wind Wind Speed Wind Gust Humidity Rainfall Rate (Hourly) solar Conditions
-17.8 °C -17.8 °C 0 hPa Calm     Humidity % 0 mm SolarRadiationWatts/m^2 W/m2 Conditions
00:01 -7.9 °C -12.4 °C 34645.6 hPa SSW 50.7 km/h 50.7 km/h 59 % 0 mm 0.0 W/m2 CLR
00:06 -7.9 °C -12.4 °C 34645.6 hPa SW 53.6 km/h 53.6 km/h 59 % 0 mm 0.0 W/m2 CLR
00:11 -8.2 °C -12.7 °C 34645.6 hPa SW 54.4 km/h 54.4 km/h 59 % 0 mm 0.0 W/m2 CLR
00:16 -8.2 °C -12.7 °C 34645.6 hPa SSW 50.7 km/h 50.7 km/h 59 % 0 mm 0.0 W/m2 CLR
00:21 -8.2 °C -12.7 °C 34645.6 hPa SSW 62.6 km/h 62.6 km/h 59 % 0 mm 0.0 W/m2 CLR
00:26 -8.2 °C -12.7 °C 34645.6 hPa SW 62.6 km/h 62.6 km/h 59 % 0 mm 0.0 W/m2 CLR
00:31 -8.2 °C -12.7 °C 34645.6 hPa SW 53.6 km/h 53.6 km/h 59 % 0 mm 0.0 W/m2 CLR
00:36 -8.2 °C -12.7 °C 34645.6 hPa SW 51.8 km/h 51.8 km/h 59 % 0 mm 0.0 W/m2 CLR
00:41 -8.2 °C -12.6 °C 34659.1 hPa SW 50.7 km/h 50.7 km/h 60 % 0 mm 0.0 W/m2 CLR
00:46 -8.5 °C -12.8 °C 34645.6 hPa SSW 56.6 km/h 56.6 km/h 60 % 0 mm 0.0 W/m2 CLR
00:51 -8.5 °C -12.8 °C 34659.1 hPa SW 59.5 km/h 59.5 km/h 60 % 0 mm 0.0 W/m2 CLR
00:56 -8.5 °C -12.8 °C 34659.1 hPa SSW 62.6 km/h 62.6 km/h 60 % 0 mm 0.0 W/m2 CLR
01:01 -8.5 °C -12.8 °C 34659.1 hPa SSW 68.6 km/h 68.6 km/h 60 % 0 mm 0.0 W/m2 CLR
01:06 -8.5 °C -12.7 °C 34659.1 hPa SSW 44.7 km/h 44.7 km/h 61 % 0 mm 0.0 W/m2 CLR
01:11 -8.5 °C -12.7 °C 34659.1 hPa SSW 50.7 km/h 50.7 km/h 61 % 0 mm 0.0 W/m2 CLR
01:16 -8.5 °C -12.6 °C 34659.1 hPa SSW 62.6 km/h 62.6 km/h 62 % 0 mm 0.0 W/m2 CLR
01:21 -8.5 °C -12.6 °C 34659.1 hPa SW 65.5 km/h 65.5 km/h 62 % 0 mm 0.0 W/m2 CLR
01:26 -8.5 °C -12.6 °C 34659.1 hPa SSW 59.5 km/h 59.5 km/h 62 % 0 mm 0.0 W/m2 CLR
01:31 -8.8 °C -12.7 °C 34659.1 hPa South 53.6 km/h 53.6 km/h 63 % 0 mm 0.0 W/m2 CLR
01:36 -8.8 °C -12.7 °C 34645.6 hPa SW 53.6 km/h 53.6 km/h 63 % 0 mm 0.0 W/m2 CLR
01:41 -8.8 °C -12.6 °C 34659.1 hPa SSW 51.8 km/h 51.8 km/h 64 % 0 mm 0.0 W/m2 CLR
01:46 -8.8 °C -12.6 °C 34659.1 hPa SSW 59.5 km/h 59.5 km/h 64 % 0 mm 0.0 W/m2 CLR
01:51 -8.8 °C -12.5 °C 34659.1 hPa SSW 53.6 km/h 53.6 km/h 65 % 0 mm 0.0 W/m2 CLR
01:56 -8.8 °C -12.5 °C 34659.1 hPa SSW 56.6 km/h 56.6 km/h 65 % 0 mm 0.0 W/m2 CLR
02:01 -8.8 °C -12.3 °C 34659.1 hPa SSW 50.7 km/h 50.7 km/h 66 % 0 mm 0.0 W/m2 CLR
02:06 -8.8 °C -12.3 °C 34659.1 hPa SSW 50.7 km/h 50.7 km/h 66 % 0 mm 0.0 W/m2 CLR
02:12 -8.8 °C -12.3 °C 34659.1 hPa SSW 38.8 km/h 40.1 km/h 66 % 0 mm 0.0 W/m2 CLR
02:17 -8.8 °C -12.3 °C 34659.1 hPa SW 65.5 km/h 65.5 km/h 66 % 0 mm 0.0 W/m2 CLR
02:22 -8.8 °C -12.3 °C 34669.3 hPa SW 53.6 km/h 53.6 km/h 66 % 0 mm 0.0 W/m2 CLR
02:27 -8.8 °C -12.3 °C 34659.1 hPa SSW 53.6 km/h 53.6 km/h 66 % 0 mm 0.0 W/m2 CLR
02:32 -8.8 °C -12.3 °C 34669.3 hPa SW 54.4 km/h 54.4 km/h 66 % 0 mm 0.0 W/m2 CLR
02:37 -8.8 °C -12.3 °C 34669.3 hPa SSW 56.6 km/h 56.6 km/h 66 % 0 mm 0.0 W/m2 CLR
02:42 -9.1 °C -12.6 °C 34669.3 hPa SSW 54.4 km/h 54.4 km/h 67 % 0 mm 0.0 W/m2 CLR
02:47 -9.1 °C -12.6 °C 34659.1 hPa SSW 47.6 km/h 47.6 km/h 67 % 0 mm 0.0 W/m2 CLR
02:52 -9.1 °C -12.6 °C 34669.3 hPa SSW 50.7 km/h 50.7 km/h 67 % 0 mm 0.0 W/m2 CLR
02:57 -9.1 °C -12.6 °C 34659.1 hPa SSW 50.7 km/h 50.7 km/h 67 % 0 mm 0.0 W/m2 CLR
03:02 -9.1 °C -12.6 °C 34659.1 hPa SSW 50.7 km/h 50.7 km/h 67 % 0 mm 0.0 W/m2 CLR
03:07 -9.1 °C -12.6 °C 34669.3 hPa SSW 41.7 km/h 41.7 km/h 67 % 0 mm 0.0 W/m2 CLR
03:12 -9.1 °C -12.6 °C 34669.3 hPa SSW 47.6 km/h 47.6 km/h 67 % 0 mm 0.0 W/m2 CLR
03:17 -9.1 °C -12.6 °C 34669.3 hPa South 68.6 km/h 68.6 km/h 67 % 0 mm 0.0 W/m2 CLR
03:18 -9.1 °C -12.6 °C 34669.3 hPa SSW 68.6 km/h 68.6 km/h 67 % 0 mm 0.0 W/m2 CLR
03:23 -9.1 °C -12.6 °C 34669.3 hPa SSW 33.6 km/h 33.6 km/h 67 % 0 mm 0.0 W/m2 CLR
03:28 -9.1 °C -12.4 °C 34669.3 hPa SSW 56.6 km/h 56.6 km/h 68 % 0 mm 0.0 W/m2 CLR
03:33 -9.1 °C -12.4 °C 34669.3 hPa SW 56.6 km/h 56.6 km/h 68 % 0 mm 0.0 W/m2 CLR
03:38 -9.1 °C -12.4 °C 34682.8 hPa SSW 38.8 km/h 38.8 km/h 68 % 0 mm 0.0 W/m2 CLR
03:43 -9.1 °C -12.4 °C 34669.3 hPa SSW 50.7 km/h 50.7 km/h 68 % 0 mm 0.0 W/m2 CLR
03:48 -9.1 °C -12.4 °C 34669.3 hPa SSW 51.8 km/h 51.8 km/h 68 % 0 mm 0.0 W/m2 CLR
03:53 -9.1 °C -12.4 °C 34669.3 hPa SSW 51.8 km/h 51.8 km/h 68 % 0 mm 0.0 W/m2 CLR
03:58 -9.1 °C -12.4 °C 34669.3 hPa SSE 50.7 km/h 50.7 km/h 68 % 0 mm 0.0 W/m2 CLR
04:03 -9.4 °C -12.7 °C 34669.3 hPa South 38.8 km/h 38.8 km/h 68 % 0 mm 0.0 W/m2 CLR
04:08 -9.4 °C -12.7 °C 34682.8 hPa SSW 35.7 km/h 35.7 km/h 68 % 0 mm 0.0 W/m2 CLR
04:13 -9.4 °C -12.6 °C 34682.8 hPa SSW 29.8 km/h 29.8 km/h 69 % 0 mm 0.0 W/m2 CLR
04:18 -9.4 °C -12.6 °C 34669.3 hPa South 29.8 km/h 29.8 km/h 69 % 0 mm 0.0 W/m2 CLR
04:23 -9.4 °C -12.6 °C 34682.8 hPa South 29.8 km/h 29.8 km/h 69 % 0 mm 0.0 W/m2 CLR
04:28 -9.4 °C -12.4 °C 34682.8 hPa SE 26.9 km/h 26.9 km/h 70 % 0 mm 0.0 W/m2 CLR
04:33 -9.4 °C -12.4 °C 34669.3 hPa SSW 32.8 km/h 32.8 km/h 70 % 0 mm 0.0 W/m2 CLR
04:38 -9.8 °C -12.7 °C 34669.3 hPa South 26.9 km/h 26.9 km/h 70 % 0 mm 0.0 W/m2 CLR
04:43 -9.4 °C -12.4 °C 34669.3 hPa SSW 38.8 km/h 38.8 km/h 70 % 0 mm 0.0 W/m2 CLR
04:48 -9.4 °C -12.4 °C 34669.3 hPa South 44.7 km/h 44.7 km/h 70 % 0 mm 0.0 W/m2 CLR
04:53 -9.4 °C -12.4 °C 34669.3 hPa SSW 29.8 km/h 29.8 km/h 70 % 0 mm 0.0 W/m2 CLR
04:58 -9.4 °C -12.4 °C 34669.3 hPa SSW 38.8 km/h 38.8 km/h 70 % 0 mm 0.0 W/m2 CLR
05:03 -9.4 °C -12.4 °C 34669.3 hPa South 35.7 km/h 35.7 km/h 70 % 0 mm 0.0 W/m2 CLR
05:08 -9.4 °C -12.4 °C 34659.1 hPa SSW 50.7 km/h 50.7 km/h 70 % 0 mm 0.0 W/m2 CLR
05:14 -9.4 °C -12.4 °C 34659.1 hPa SSW 44.7 km/h 44.7 km/h 70 % 0 mm 0.0 W/m2 CLR
05:19 -9.4 °C -12.6 °C 34659.1 hPa SSW 47.6 km/h 47.6 km/h 69 % 0 mm 0.0 W/m2 CLR
05:23 -9.4 °C -12.4 °C 34659.1 hPa SSW 29.8 km/h 29.8 km/h 70 % 0 mm 0.0 W/m2 CLR
05:24 -9.4 °C -12.4 °C 34659.1 hPa SSW 29.8 km/h 29.8 km/h 70 % 0 mm 0.0 W/m2 CLR
05:26 -9.4 °C -12.4 °C 34659.1 hPa South 26.9 km/h 26.9 km/h 70 % 0 mm 0.0 W/m2 CLR
05:31 -9.4 °C -12.4 °C 34659.1 hPa SSW 46.7 km/h 46.7 km/h 70 % 0 mm 0.0 W/m2 CLR
05:34 -9.4 °C -12.6 °C 34659.1 hPa South 35.7 km/h 35.7 km/h 69 % 0 mm 0.0 W/m2 CLR
05:36 -9.8 °C -12.7 °C 34659.1 hPa SSW 44.7 km/h 44.7 km/h 70 % 0 mm 0.0 W/m2 CLR
05:41 -9.4 °C -12.4 °C 34659.1 hPa SSW 35.7 km/h 35.7 km/h 70 % 0 mm 0.0 W/m2 CLR
05:46 -9.4 °C -12.6 °C 34669.3 hPa SSW 41.7 km/h 41.7 km/h 69 % 0 mm 0.0 W/m2 CLR
05:51 -9.4 °C -12.4 °C 34659.1 hPa SSW 47.6 km/h 47.6 km/h 70 % 0 mm 0.0 W/m2 CLR
05:56 -9.8 °C -12.7 °C 34669.3 hPa South 47.6 km/h 47.6 km/h 70 % 0 mm 0.0 W/m2 CLR
06:01 -9.8 °C -12.9 °C 34669.3 hPa SSW 38.8 km/h 38.8 km/h 69 % 0 mm 0.0 W/m2 CLR
06:06 -9.8 °C -12.7 °C 34669.3 hPa SSW 44.7 km/h 44.7 km/h 70 % 0 mm 0.0 W/m2 CLR
06:11 -9.8 °C -12.7 °C 34669.3 hPa SSW 29.8 km/h 29.8 km/h 70 % 0 mm 0.0 W/m2 CLR
06:16 -9.8 °C -12.7 °C 34682.8 hPa SSW 44.7 km/h 44.7 km/h 70 % 0 mm 0.0 W/m2 CLR
06:21 -9.8 °C -12.7 °C 34669.3 hPa SW 44.7 km/h 44.7 km/h 70 % 0 mm 0.0 W/m2 CLR
06:26 -9.8 °C -12.7 °C 34682.8 hPa SSW 29.8 km/h 29.8 km/h 70 % 0 mm 0.0 W/m2 CLR
06:31 -9.8 °C -12.7 °C 34669.3 hPa SSW 33.6 km/h 33.6 km/h 71 % 0 mm 0.0 W/m2 CLR
06:36 -9.8 °C -12.7 °C 34682.8 hPa SSW 44.7 km/h 44.7 km/h 71 % 0 mm 0.0 W/m2 CLR
06:41 -9.8 °C -12.7 °C 34669.3 hPa SSW 33.6 km/h 33.6 km/h 71 % 0 mm 0.0 W/m2 CLR
06:46 -9.8 °C -12.7 °C 34682.8 hPa SSW 44.7 km/h 44.7 km/h 71 % 0 mm 0.0 W/m2 CLR
06:51 -9.8 °C -12.7 °C 34682.8 hPa SW 50.7 km/h 50.7 km/h 71 % 0 mm 0.0 W/m2 CLR
06:56 -10.1 °C -12.9 °C 34682.8 hPa South 47.6 km/h 47.6 km/h 71 % 0 mm 0.0 W/m2 CLR
07:01 -10.1 °C -12.9 °C 34682.8 hPa SSW 32.8 km/h 32.8 km/h 71 % 0 mm 0.0 W/m2 CLR
07:06 -9.8 °C -12.7 °C 34682.8 hPa SW 38.8 km/h 38.8 km/h 71 % 0 mm 0.0 W/m2 CLR
07:11 -10.1 °C -12.9 °C 34682.8 hPa SSW 35.7 km/h 35.7 km/h 71 % 0 mm 0.0 W/m2 CLR
07:21 -10.1 °C -13.1 °C 34682.8 hPa SW 35.7 km/h 35.7 km/h 70 % 0 mm 0.0 W/m2 OVC
07:26 -10.1 °C -12.9 °C 34682.8 hPa SSW 38.8 km/h 38.8 km/h 71 % 0 mm 0.0 W/m2 OVC
07:31 -10.1 °C -13.1 °C 34682.8 hPa SSW 32.8 km/h 32.8 km/h 70 % 0 mm 7.0 W/m2 BKN
07:36 -9.8 °C -12.7 °C 34682.8 hPa SW 44.1 km/h 44.1 km/h 71 % 0 mm 11.0 W/m2 BKN
07:41 -9.8 °C -12.7 °C 34682.8 hPa SSW 41.7 km/h 41.7 km/h 70 % 0 mm 14.0 W/m2 BKN
07:46 -9.8 °C -12.7 °C 34682.8 hPa SW 47.6 km/h 47.6 km/h 70 % 0 mm 18.0 W/m2 BKN
07:51 -9.8 °C -12.7 °C 34693 hPa SW 51.8 km/h 51.8 km/h 70 % 0 mm 21.0 W/m2 BKN
07:56 -9.8 °C -12.7 °C 34693 hPa SSW 50.7 km/h 50.7 km/h 70 % 0 mm 26.0 W/m2 BKN
08:01 -9.8 °C -12.7 °C 34693 hPa SW 38.8 km/h 38.8 km/h 70 % 0 mm 33.0 W/m2 BKN
08:06 -9.8 °C -12.7 °C 34693 hPa SW 36.2 km/h 36.2 km/h 70 % 0 mm 44.0 W/m2 BKN
08:11 -9.8 °C -12.7 °C 34693 hPa SW 44.7 km/h 44.7 km/h 70 % 0 mm 56.0 W/m2 SCT
08:16 -9.8 °C -12.9 °C 34693 hPa South 47.6 km/h 47.6 km/h 69 % 0 mm 69.0 W/m2 SCT
08:21 -9.8 °C -12.9 °C 34703.1 hPa South 33.6 km/h 33.6 km/h 69 % 0 mm 72.0 W/m2 FEW
08:26 -9.8 °C -12.9 °C 34703.1 hPa South 44.7 km/h 44.7 km/h 69 % 0 mm 84.0 W/m2 FEW
08:31 -9.4 °C -12.6 °C 34703.1 hPa SSW 29.8 km/h 29.8 km/h 69 % 0 mm 114.0 W/m2 FEW
08:36 -9.4 °C -12.7 °C 34703.1 hPa SSW 35.7 km/h 35.7 km/h 68 % 0 mm 130.0 W/m2 CLR
08:41 -9.4 °C -12.7 °C 34703.1 hPa South 41.7 km/h 41.7 km/h 68 % 0 mm 148.0 W/m2 CLR
08:46 -9.4 °C -12.7 °C 34703.1 hPa South 38.8 km/h 38.8 km/h 68 % 0 mm 165.0 W/m2 CLR
08:51 -9.4 °C -12.7 °C 34703.1 hPa SSW 35.7 km/h 35.7 km/h 68 % 0 mm 51.0 W/m2 CLR
08:56 -9.4 °C -12.7 °C 34703.1 hPa SSW 35.7 km/h 35.7 km/h 68 % 0 mm 204.0 W/m2 FEW
08:58 -9.4 °C -12.8 °C 34703.1 hPa SSW 35.7 km/h 35.7 km/h 67 % 0 mm 209.0 W/m2 FEW
09:03 -9.1 °C -12.6 °C 34703.1 hPa SSW 35.7 km/h 35.7 km/h 67 % 0 mm 225.0 W/m2 CLR
09:08 -9.1 °C -12.6 °C 34703.1 hPa SW 38.8 km/h 38.8 km/h 67 % 0 mm 248.0 W/m2 CLR
09:13 -8.8 °C -12.2 °C 34703.1 hPa SW 51.8 km/h 51.8 km/h 67 % 0 mm 264.0 W/m2 CLR
09:18 -8.8 °C -12.2 °C 34703.1 hPa SSW 35.7 km/h 35.7 km/h 67 % 0 mm 278.0 W/m2 CLR
09:23 -8.8 °C -12.2 °C 34703.1 hPa SSW 50.7 km/h 50.7 km/h 67 % 0 mm 292.0 W/m2 CLR
09:28 -8.8 °C -12.2 °C 34703.1 hPa SW 50.7 km/h 50.7 km/h 67 % 0 mm 309.0 W/m2 CLR
09:33 -8.8 °C -12.3 °C 34703.1 hPa SSW 41.7 km/h 41.7 km/h 66 % 0 mm 325.0 W/m2 CLR
09:38 -8.5 °C -12.2 °C 34703.1 hPa SSW 44.7 km/h 44.7 km/h 65 % 0 mm 343.0 W/m2 CLR
09:43 -8.5 °C -12.3 °C 34703.1 hPa SW 38.8 km/h 38.8 km/h 64 % 0 mm 359.0 W/m2 CLR
09:48 -8.5 °C -12.3 °C 34716.7 hPa SSW 53.6 km/h 53.6 km/h 64 % 0 mm 380.0 W/m2 CLR
09:53 -8.5 °C -12.4 °C 34716.7 hPa SW 56.6 km/h 56.6 km/h 63 % 0 mm 394.0 W/m2 CLR
09:58 -8.2 °C -12.2 °C 34716.7 hPa SW 50.7 km/h 50.7 km/h 63 % 0 mm 411.0 W/m2 CLR
10:03 -8.2 °C -12.2 °C 34716.7 hPa SW 53.6 km/h 53.6 km/h 63 % 0 mm 427.0 W/m2 CLR
10:08 -8.2 °C -12.2 °C 34716.7 hPa SSW 46.7 km/h 46.7 km/h 63 % 0 mm 443.0 W/m2 CLR
10:13 -8.2 °C -12.3 °C 34716.7 hPa SW 50.7 km/h 50.7 km/h 62 % 0 mm 464.0 W/m2 CLR
10:18 -7.9 °C -12 °C 34716.7 hPa WSW 68.6 km/h 68.6 km/h 62 % 0 mm 478.0 W/m2 CLR
10:23 -7.9 °C -12.3 °C 34716.7 hPa West 50.7 km/h 50.7 km/h 60 % 0 mm 494.0 W/m2 CLR
10:28 -7.9 °C -12.1 °C 34716.7 hPa SSW 59.5 km/h 59.5 km/h 61 % 0 mm 522.0 W/m2 CLR
10:33 -7.9 °C -12.3 °C 34716.7 hPa WSW 62.1 km/h 62.1 km/h 60 % 0 mm 540.0 W/m2 CLR
10:38 -7.9 °C -12.3 °C 34716.7 hPa SW 50.7 km/h 50.7 km/h 60 % 0 mm 403.0 W/m2 CLR
10:43 -7.9 °C -12.4 °C 34716.7 hPa SW 53.6 km/h 53.6 km/h 59 % 0 mm 643.0 W/m2 CLR
10:48 -7.9 °C -12.3 °C 34716.7 hPa SW 68.6 km/h 68.6 km/h 60 % 0 mm 626.0 W/m2 CLR
10:53 -7.6 °C -12.3 °C 34716.7 hPa SSW 44.7 km/h 44.7 km/h 58 % 0 mm 622.0 W/m2 CLR
10:58 -7.6 °C -12.1 °C 34716.7 hPa SW 54.4 km/h 54.4 km/h 59 % 0 mm 605.0 W/m2 CLR
11:03 -7.6 °C -12.3 °C 34716.7 hPa SW 50.7 km/h 50.7 km/h 58 % 0 mm 626.0 W/m2 CLR
11:08 -7.3 °C -12 °C 34703.1 hPa SW 56.6 km/h 56.6 km/h 58 % 0 mm 649.0 W/m2 CLR
11:13 -7.3 °C -12 °C 34703.1 hPa SSW 41.7 km/h 41.7 km/h 58 % 0 mm 666.0 W/m2 CLR
11:18 -7.3 °C -12.3 °C 34716.7 hPa SW 36.2 km/h 36.2 km/h 56 % 0 mm 693.0 W/m2 CLR
11:23 -7 °C -12.1 °C 34716.7 hPa West 62.6 km/h 62.6 km/h 55 % 0 mm 670.0 W/m2 CLR
11:28 -7 °C -12.3 °C 34703.1 hPa SSW 46.7 km/h 46.7 km/h 54 % 0 mm 666.0 W/m2 CLR
11:33 -6.7 °C -12 °C 34703.1 hPa WSW 41.7 km/h 41.7 km/h 54 % 0 mm 677.0 W/m2 CLR
11:38 -6.7 °C -12.2 °C 34703.1 hPa WSW 59.5 km/h 59.5 km/h 53 % 0 mm 686.0 W/m2 CLR
11:43 -6.7 °C -12.3 °C 34703.1 hPa SW 50.7 km/h 50.7 km/h 52 % 0 mm 698.0 W/m2 CLR
11:48 -6.7 °C -12.3 °C 34703.1 hPa SSW 56.6 km/h 56.6 km/h 52 % 0 mm 707.0 W/m2 CLR
11:53 -6.3 °C -12.3 °C 34703.1 hPa SW 65.5 km/h 65.5 km/h 50 % 0 mm 717.0 W/m2 CLR
11:58 -6.7 °C -12.6 °C 34703.1 hPa WSW 50.7 km/h 50.7 km/h 50 % 0 mm 726.0 W/m2 CLR
12:03 -6.3 °C -12.6 °C 34703.1 hPa SW 74.5 km/h 74.5 km/h 49 % 0 mm 735.0 W/m2 CLR
12:08 -6.3 °C -12.2 °C 34703.1 hPa WSW 50.7 km/h 50.7 km/h 51 % 0 mm 744.0 W/m2 CLR
12:13 -6.3 °C -12.3 °C 34693 hPa SW 54.4 km/h 54.4 km/h 50 % 0 mm 749.0 W/m2 CLR
12:18 -6.1 °C -12.4 °C 34693 hPa WSW 68.6 km/h 68.6 km/h 48 % 0 mm 761.0 W/m2 CLR
12:23 -6.3 °C -12.6 °C 34693 hPa SW 47.6 km/h 47.6 km/h 49 % 0 mm 765.0 W/m2 CLR
12:28 -5.7 °C -12.1 °C 34693 hPa SW 68.6 km/h 68.6 km/h 48 % 0 mm 772.0 W/m2 CLR
12:33 -6.1 °C -12.4 °C 34682.8 hPa SW 41.7 km/h 41.7 km/h 48 % 0 mm 779.0 W/m2 CLR
12:38 -6.1 °C -12.1 °C 34682.8 hPa WSW 35.7 km/h 35.7 km/h 50 % 0 mm 788.0 W/m2 CLR
12:43 -5.7 °C -12.1 °C 34682.8 hPa SW 50.7 km/h 50.7 km/h 48 % 0 mm 791.0 W/m2 CLR
12:49 -5.7 °C -12.1 °C 34682.8 hPa SW 57 km/h 57 km/h 48 % 0 mm 796.0 W/m2 CLR
12:54 -5.7 °C -11.9 °C 34682.8 hPa SW 47.6 km/h 47.6 km/h 49 % 0 mm 798.0 W/m2 CLR
12:59 -5.7 °C -11.9 °C 34682.8 hPa WSW 56.6 km/h 56.6 km/h 49 % 0 mm 805.0 W/m2 CLR
13:04 -5.7 °C -11.9 °C 34669.3 hPa SW 50.7 km/h 50.7 km/h 49 % 0 mm 810.0 W/m2 CLR
13:09 -5.4 °C -11.8 °C 34669.3 hPa West 47.6 km/h 47.6 km/h 48 % 0 mm 819.0 W/m2 CLR
13:14 -5.7 °C -12.1 °C 34669.3 hPa West 59.5 km/h 59.5 km/h 48 % 0 mm 823.0 W/m2 CLR
13:19 -5.7 °C -11.9 °C 34669.3 hPa SW 44.1 km/h 44.1 km/h 49 % 0 mm 824.0 W/m2 CLR
13:24 -5.7 °C -12.3 °C 34669.3 hPa SW 50.7 km/h 50.7 km/h 47 % 0 mm 828.0 W/m2 CLR
13:29 -5.4 °C -12 °C 34659.1 hPa WSW 59.5 km/h 59.5 km/h 47 % 0 mm 828.0 W/m2 CLR
13:34 -5.7 °C -12.3 °C 34659.1 hPa WSW 65.5 km/h 65.5 km/h 47 % 0 mm 833.0 W/m2 CLR
13:39 -5.4 °C -12.2 °C 34659.1 hPa West 53.6 km/h 53.6 km/h 46 % 0 mm 835.0 W/m2 CLR
13:44 -5.4 °C -12.4 °C 34659.1 hPa SW 68.6 km/h 68.6 km/h 45 % 0 mm 840.0 W/m2 CLR
13:49 -5.4 °C -12.2 °C 34645.6 hPa SW 68.6 km/h 68.6 km/h 46 % 0 mm 838.0 W/m2 CLR
13:54 -5.4 °C -12 °C 34645.6 hPa WSW 50.7 km/h 50.7 km/h 47 % 0 mm 840.0 W/m2 CLR
13:59 -5.4 °C -12.4 °C 34645.6 hPa West 50.7 km/h 50.7 km/h 45 % 0 mm 842.0 W/m2 CLR
14:04 -5.4 °C -12.4 °C 34645.6 hPa West 54.4 km/h 54.4 km/h 45 % 0 mm 842.0 W/m2 CLR
14:05 -5.4 °C -12.7 °C 34645.6 hPa WSW 62.1 km/h 62.1 km/h 43 % 0 mm 844.0 W/m2 CLR
14:10 -5.1 °C -12.3 °C 34645.6 hPa WSW 62.6 km/h 62.6 km/h 44 % 0 mm 842.0 W/m2 CLR
14:15 -5.1 °C -12.1 °C 34645.6 hPa West 47.6 km/h 47.6 km/h 45 % 0 mm 838.0 W/m2 CLR
14:20 -5.1 °C -12.3 °C 34645.6 hPa West 56.6 km/h 56.6 km/h 44 % 0 mm 838.0 W/m2 CLR
14:25 -5.1 °C -12.3 °C 34645.6 hPa SW 59.5 km/h 59.5 km/h 44 % 0 mm 837.0 W/m2 CLR
14:30 -5.1 °C -12.3 °C 34645.6 hPa West 53.6 km/h 53.6 km/h 44 % 0 mm 838.0 W/m2 CLR
14:35 -4.8 °C -12.2 °C 34645.6 hPa WSW 54.4 km/h 54.4 km/h 43 % 0 mm 831.0 W/m2 CLR
14:40 -4.8 °C -12 °C 34645.6 hPa WSW 46.7 km/h 46.7 km/h 44 % 0 mm 826.0 W/m2 CLR
14:45 -4.5 °C -12.1 °C 34645.6 hPa West 68.6 km/h 68.6 km/h 42 % 0 mm 823.0 W/m2 CLR
14:50 -4.8 °C -12.4 °C 34645.6 hPa SW 47.6 km/h 47.6 km/h 42 % 0 mm 821.0 W/m2 CLR
14:55 -4.5 °C -12.1 °C 34645.6 hPa SW 68.6 km/h 68.6 km/h 42 % 0 mm 817.0 W/m2 CLR
15:00 -4.8 °C -12.4 °C 34635.4 hPa SSW 38.8 km/h 38.8 km/h 42 % 0 mm 814.0 W/m2 CLR
15:05 -4.5 °C -11.7 °C 34635.4 hPa WSW 54.4 km/h 54.4 km/h 44 % 0 mm 807.0 W/m2 CLR
15:10 -4.5 °C -11.7 °C 34635.4 hPa WSW 44.7 km/h 44.7 km/h 44 % 0 mm 800.0 W/m2 CLR
15:15 -4.5 °C -11.9 °C 34635.4 hPa SW 41.7 km/h 41.7 km/h 43 % 0 mm 798.0 W/m2 CLR
15:20 -4.5 °C -11.9 °C 34635.4 hPa WSW 50.7 km/h 50.7 km/h 43 % 0 mm 789.0 W/m2 CLR
15:25 -4.5 °C -11.9 °C 34635.4 hPa West 53.6 km/h 53.6 km/h 43 % 0 mm 784.0 W/m2 CLR
15:30 -4.5 °C -11.7 °C 34625.2 hPa SW 38.8 km/h 39.6 km/h 44 % 0 mm 777.0 W/m2 CLR
15:31 -4.5 °C -11.9 °C 34625.2 hPa WSW 50.7 km/h 50.7 km/h 43 % 0 mm 777.0 W/m2 CLR
15:36 -4.5 °C -12.1 °C 34625.2 hPa SW 50.7 km/h 50.7 km/h 42 % 0 mm 770.0 W/m2 CLR
15:41 -4.5 °C -11.7 °C 34625.2 hPa SW 32.8 km/h 32.8 km/h 44 % 0 mm 761.0 W/m2 CLR
15:46 -4.5 °C -11.7 °C 34625.2 hPa West 35.7 km/h 35.7 km/h 44 % 0 mm 752.0 W/m2 CLR
15:51 -4.5 °C -11.9 °C 34625.2 hPa WSW 44.7 km/h 44.7 km/h 43 % 0 mm 744.0 W/m2 CLR
15:56 -4.5 °C -11.9 °C 34625.2 hPa WSW 54.4 km/h 54.4 km/h 43 % 0 mm 735.0 W/m2 CLR
16:01 -4.5 °C -11.9 °C 34625.2 hPa SW 68.6 km/h 68.6 km/h 43 % 0 mm 726.0 W/m2 CLR
16:06 -4.5 °C -11.7 °C 34611.7 hPa SW 50.7 km/h 50.7 km/h 44 % 0 mm 719.0 W/m2 CLR
16:11 -4.2 °C -11.6 °C 34611.7 hPa WSW 68.6 km/h 68.6 km/h 43 % 0 mm 708.0 W/m2 CLR
16:16 -4.2 °C -11.6 °C 34611.7 hPa SW 68.6 km/h 68.6 km/h 43 % 0 mm 696.0 W/m2 CLR
16:21 -4.5 °C -11.9 °C 34601.5 hPa WSW 41.7 km/h 41.7 km/h 43 % 0 mm 682.0 W/m2 CLR
16:26 -4.2 °C -11.6 °C 34601.5 hPa WSW 56.6 km/h 56.6 km/h 43 % 0 mm 670.0 W/m2 CLR
16:31 -4.2 °C -11.8 °C 34601.5 hPa WSW 44.7 km/h 44.7 km/h 42 % 0 mm 663.0 W/m2 CLR
16:36 -4.2 °C -11.6 °C 34601.5 hPa WSW 59.5 km/h 59.5 km/h 43 % 0 mm 649.0 W/m2 CLR
16:41 -4.2 °C -11.6 °C 34601.5 hPa WSW 44.7 km/h 44.7 km/h 43 % 0 mm 636.0 W/m2 CLR
16:46 -4.2 °C -11.6 °C 34591.4 hPa WSW 50.7 km/h 50.7 km/h 43 % 0 mm 629.0 W/m2 CLR
16:51 -4.2 °C -11.8 °C 34591.4 hPa SW 53.6 km/h 53.6 km/h 42 % 0 mm 619.0 W/m2 CLR
16:56 -4.5 °C -12.1 °C 34591.4 hPa WSW 44.7 km/h 44.7 km/h 42 % 0 mm 605.0 W/m2 CLR
17:01 -4.5 °C -12.1 °C 34591.4 hPa SW 35.7 km/h 35.7 km/h 42 % 0 mm 591.0 W/m2 CLR
17:06 -4.2 °C -12.1 °C 34591.4 hPa WSW 47.6 km/h 47.6 km/h 41 % 0 mm 578.0 W/m2 CLR
17:11 -4.2 °C -12.3 °C 34577.8 hPa WSW 47.6 km/h 47.6 km/h 40 % 0 mm 564.0 W/m2 CLR
17:16 -4.2 °C -12.4 °C 34591.4 hPa West 53.6 km/h 53.6 km/h 39 % 0 mm 555.0 W/m2 CLR
17:21 -4.2 °C -12.1 °C 34577.8 hPa WSW 44.7 km/h 44.7 km/h 41 % 0 mm 543.0 W/m2 CLR
17:26 -4.2 °C -12.3 °C 34577.8 hPa SW 50.7 km/h 50.7 km/h 40 % 0 mm 529.0 W/m2 CLR
17:31 -4.2 °C -12.3 °C 34577.8 hPa WSW 49.2 km/h 49.2 km/h 40 % 0 mm 504.0 W/m2 CLR
17:36 -4.2 °C -12.3 °C 34577.8 hPa SW 49.2 km/h 49.2 km/h 40 % 0 mm 504.0 W/m2 CLR
17:41 -4.2 °C -12.1 °C 34577.8 hPa WSW 33.6 km/h 33.6 km/h 41 % 0 mm 487.0 W/m2 CLR
17:46 -4.2 °C -12.1 °C 34577.8 hPa West 38.8 km/h 38.8 km/h 41 % 0 mm 468.0 W/m2 CLR
17:51 -4.2 °C -12.7 °C 34577.8 hPa SW 50.7 km/h 50.7 km/h 38 % 0 mm 445.0 W/m2 CLR
17:56 -4.2 °C -12.3 °C 34577.8 hPa WSW 44.7 km/h 44.7 km/h 40 % 0 mm 311.0 W/m2 CLR
18:01 -4.2 °C -12.4 °C 34577.8 hPa WSW 44.7 km/h 44.7 km/h 39 % 0 mm 306.0 W/m2 CLR
18:06 -4.5 °C -12.7 °C 34577.8 hPa SW 29.8 km/h 29.8 km/h 39 % 0 mm 371.0 W/m2 CLR
18:11 -4.2 °C -12.4 °C 34577.8 hPa WSW 38.8 km/h 38.8 km/h 39 % 0 mm 431.0 W/m2 CLR
18:16 -4.2 °C -12.4 °C 34577.8 hPa WSW 47.6 km/h 47.6 km/h 39 % 0 mm 413.0 W/m2 CLR
18:21 -4.2 °C -12.3 °C 34567.7 hPa WSW 36.2 km/h 36.2 km/h 40 % 0 mm 373.0 W/m2 CLR
18:26 -4.2 °C -12.1 °C 34567.7 hPa SW 38.8 km/h 38.8 km/h 41 % 0 mm 350.0 W/m2 CLR
18:31 -4.5 °C -12.3 °C 34567.7 hPa WSW 50.7 km/h 50.7 km/h 41 % 0 mm 330.0 W/m2 CLR
18:36 -4.5 °C -12.1 °C 34567.7 hPa WSW 38.8 km/h 38.8 km/h 42 % 0 mm 313.0 W/m2 CLR
18:41 -4.5 °C -12.1 °C 34577.8 hPa WSW 47.6 km/h 47.6 km/h 42 % 0 mm 295.0 W/m2 CLR
18:51 -4.8 °C -12.6 °C 34567.7 hPa WSW 53.6 km/h 53.6 km/h 41 % 0 mm 258.0 W/m2 CLR
18:56 -4.8 °C -12.6 °C 34567.7 hPa WSW 49.2 km/h 49.2 km/h 41 % 0 mm 241.0 W/m2 CLR
19:01 -4.8 °C -12.6 °C 34567.7 hPa SW 38.8 km/h 38.8 km/h 41 % 0 mm 221.0 W/m2 CLR
19:06 -4.8 °C -12.6 °C 34567.7 hPa SW 35.7 km/h 35.7 km/h 41 % 0 mm 204.0 W/m2 CLR
19:12 -4.8 °C -12.8 °C 34567.7 hPa West 38.8 km/h 38.8 km/h 40 % 0 mm 183.0 W/m2 CLR
19:17 -4.8 °C -12.6 °C 34567.7 hPa SW 44.7 km/h 44.7 km/h 41 % 0 mm 160.0 W/m2 CLR
19:22 -5.1 °C -12.9 °C 34567.7 hPa SSW 29.8 km/h 29.8 km/h 41 % 0 mm 144.0 W/m2 CLR
19:27 -5.1 °C -12.7 °C 34567.7 hPa WSW 41.7 km/h 41.7 km/h 42 % 0 mm 127.0 W/m2 CLR
19:32 -5.1 °C -12.7 °C 34567.7 hPa WSW 44.7 km/h 44.7 km/h 42 % 0 mm 107.0 W/m2 CLR
19:37 -5.4 °C -12.7 °C 34567.7 hPa WSW 33.6 km/h 33.6 km/h 43 % 0 mm 90.0 W/m2 CLR
19:42 -5.4 °C -12.7 °C 34567.7 hPa SW 29.8 km/h 29.8 km/h 43 % 0 mm 76.0 W/m2 FEW
19:47 -5.4 °C -12.9 °C 34567.7 hPa SSW 35.7 km/h 35.7 km/h 42 % 0 mm 53.0 W/m2 SCT
19:52 -5.4 °C -12.7 °C 34567.7 hPa SSW 38.8 km/h 38.8 km/h 43 % 0 mm 46.0 W/m2 SCT
19:57 -5.4 °C -12.7 °C 34567.7 hPa SW 35.7 km/h 35.7 km/h 43 % 0 mm 35.0 W/m2 BKN
20:02 -5.4 °C -12.7 °C 34567.7 hPa SW 41.7 km/h 41.7 km/h 43 % 0 mm 25.0 W/m2 BKN
20:07 -5.7 °C -12.8 °C 34567.7 hPa SW 32.8 km/h 32.8 km/h 44 % 0 mm 14.0 W/m2 BKN
20:12 -5.7 °C -12.7 °C 34567.7 hPa SW 15.6 km/h 17.1 km/h 45 % 0 mm 11.0 W/m2 BKN
20:17 -6.1 °C -12.7 °C 34567.7 hPa SW 9 km/h 9 km/h 46 % 0 mm 9.0 W/m2 BKN
20:22 -6.3 °C -13 °C 34567.7 hPa SW 9 km/h 9 km/h 46 % 0 mm 5.0 W/m2 BKN
20:27 -6.3 °C -12.9 °C 34567.7 hPa SW 20.9 km/h 20.9 km/h 47 % 0 mm 0.0 W/m2 OVC
20:32 -6.7 °C -13.2 °C 34567.7 hPa SW 9 km/h 9 km/h 47 % 0 mm 0.0 W/m2 OVC
20:37 -7 °C -13.4 °C 34567.7 hPa SSW 6 km/h   47 % 0 mm 0.0 W/m2 OVC
20:42 -7.3 °C -13.6 °C 34577.8 hPa South 6 km/h   48 % 0 mm 0.0 W/m2 CLR
20:47 -7.3 °C -13.6 °C 34577.8 hPa Calm     48 % 0 mm 0.0 W/m2 CLR
20:52 -7.3 °C -13.4 °C 34577.8 hPa Calm     49 % 0 mm 0.0 W/m2 CLR
20:57 -7.3 °C -13.4 °C 34577.8 hPa SSW 9 km/h 9 km/h 49 % 0 mm 0.0 W/m2 CLR
21:02 -7.6 °C -13.5 °C 34577.8 hPa Calm     50 % 0 mm 0.0 W/m2 CLR
21:07 -7.9 °C -13.8 °C 34591.4 hPa SSW 11.9 km/h 11.9 km/h 50 % 0 mm 0.0 W/m2 CLR
21:12 -8.2 °C -14.1 °C 34591.4 hPa SSW 6 km/h 6 km/h 50 % 0 mm 0.0 W/m2 CLR
21:17 -8.5 °C -14.2 °C 34591.4 hPa Calm     51 % 0 mm 0.0 W/m2 CLR
21:22 -8.8 °C -14.5 °C 34591.4 hPa Calm     51 % 0 mm 0.0 W/m2 CLR
21:27 -9.1 °C -14.8 °C 34591.4 hPa Calm     51 % 0 mm 0.0 W/m2 CLR
21:32 -9.4 °C -15.1 °C 34591.4 hPa Calm     51 % 0 mm 0.0 W/m2 CLR
21:37 -9.8 °C -15.2 °C 34591.4 hPa Calm     52 % 0 mm 0.0 W/m2 CLR
21:42 -9.8 °C -15 °C 34591.4 hPa Calm     53 % 0 mm 0.0 W/m2 CLR
21:47 -10.1 °C -15.2 °C 34601.5 hPa Calm     54 % 0 mm 0.0 W/m2 CLR
21:52 -10.1 °C -15.2 °C 34601.5 hPa Calm     54 % 0 mm 0.0 W/m2 CLR
21:57 -10.4 °C -15.3 °C 34601.5 hPa Calm     55 % 0 mm 0.0 W/m2 CLR
22:02 -10.4 °C -15.3 °C 34601.5 hPa Calm     55 % 0 mm 0.0 W/m2 CLR
22:07 -10.4 °C -15.2 °C 34601.5 hPa Calm     56 % 0 mm 0.0 W/m2 CLR
22:12 -10.4 °C -15 °C 34601.5 hPa Calm     57 % 0 mm 0.0 W/m2 CLR
22:17 -10.1 °C -14.6 °C 34601.5 hPa Calm     58 % 0 mm 0.0 W/m2 CLR
22:22 -10.1 °C -14.2 °C 34601.5 hPa Calm     61 % 0 mm 0.0 W/m2 CLR
22:27 -10.1 °C -13.9 °C 34601.5 hPa SSW 5.1 km/h 5.1 km/h 63 % 0 mm 0.0 W/m2 CLR
22:32 -10.1 °C -13.9 °C 34601.5 hPa Calm     63 % 0 mm 0.0 W/m2 CLR
22:37 -10.4 °C -14.2 °C 34601.5 hPa Calm     63 % 0 mm 0.0 W/m2 CLR
22:42 -10.4 °C -14.1 °C 34601.5 hPa Calm     64 % 0 mm 0.0 W/m2 CLR
22:47 -10.4 °C -14.1 °C 34601.5 hPa Calm     64 % 0 mm 0.0 W/m2 CLR
22:52 -10.7 °C -14.4 °C 34611.7 hPa Calm     64 % 0 mm 0.0 W/m2 CLR
22:57 -10.7 °C -14.3 °C 34611.7 hPa Calm     65 % 0 mm 0.0 W/m2 CLR
23:02 -11 °C -14.6 °C 34611.7 hPa Calm     65 % 0 mm 0.0 W/m2 CLR
23:07 -11 °C -14.6 °C 34611.7 hPa Calm     65 % 0 mm 0.0 W/m2 CLR
23:12 -11 °C -14.4 °C 34611.7 hPa SSE 20.9 km/h 20.9 km/h 66 % 0 mm 0.0 W/m2 CLR
23:17 -11 °C -14.4 °C 34611.7 hPa South 11.9 km/h 11.9 km/h 66 % 0 mm 0.0 W/m2 CLR
23:22 -10.7 °C -14.3 °C 34611.7 hPa South 11.9 km/h 11.9 km/h 65 % 0 mm 0.0 W/m2 CLR
23:27 -10.4 °C -14.1 °C 34611.7 hPa South 11.9 km/h 11.9 km/h 64 % 0 mm 0.0 W/m2 CLR
23:32 -10.4 °C -14.1 °C 34611.7 hPa SSE 15.6 km/h 15.6 km/h 64 % 0 mm 0.0 W/m2 CLR
23:37 -10.4 °C -14.1 °C 34611.7 hPa Calm     64 % 0 mm 0.0 W/m2 CLR
23:42 -10.4 °C -13.9 °C 34625.2 hPa Calm     65 % 0 mm 0.0 W/m2 CLR
23:47 -10.7 °C -14 °C 34611.7 hPa Calm     67 % 0 mm 0.0 W/m2 CLR
23:52 -10.7 °C -14 °C 34611.7 hPa Calm     67 % 0 mm 0.0 W/m2 CLR
23:57 -10.7 °C -14 °C 34625.2 hPa Calm     67 % 0 mm 0.0 W/m2 CLR
Lo Temps de Massalio
Compliments of Weather Underground - 1.25 mb